aviador You're here:

KMKT Decoded Metar

MANKATO in MN, USA
Report Time2018-01-19 04:56:00
UTC Time2018-01-19 05:30:33
Flight Rules vfr VFR
Wind190° at 08 kt
W.Decomp.*RWY 22: 6.6 kt HW 4.5 kt LCW
RWY 15: 6.5 kt HW 4.7 kt RCW
W.Rank190° ranks 5
Current wind is below 190° avg. (9.7)
Visibility9999 m
Phenomena:N/A
Clouds:N/A
Expected CloudBase > 800 ft AGL from Temp-Dew spread
CeilingNone
Temp-1°C (ISA -14)
Dew Point-3°C (86% RH)
AAT-6.3°C
QNH1008 hPa
Density Alt-446 ft
Elevation1,020 ft
Report Wrong Elevation
Raw Report
KMKT 190456Z AUTO 19008KT 10SM CLR M01/M03 A2976 RMK AO2 SLP092
T10061028 FZRANO=

Extra information for KMKT:More info

Metar Taf Metar & Taf Last 4 Metars F.Rules Stats Wind Profile Meteogram Temp Stats Airport Information Weather charts Add Link Nearby VenuesMetar ALERT Operation Metar Decoded Social comments

AIRNAV info for KMKT